Pagina principale
METAR-TAF:

METAR-TAF

Aeroporti :

Aeroporto di Jersey

Jersey,

latitudine: 49-13N, longitudine: 002-12W, altezza: 84 m

Osservazione

Il bollettino è stato emesso 32 minuti fa, alle 16:50 UTC
Vento 15 kt da est/nord-est, variando fra nord/nord-est e est
Temperature 21°C
Umidità 40%
Pressione 1018 hPa
Visibilità 10 km o più
nessuna nube inferiore a 1500 m e nessun cumulonembo

METAR: EGJJ 311650Z 06015KT 030V090 CAVOK 21/07 Q1018

Ora: 18:22 (17:22 UTC)

Previsione

Il bollettino è stato emesso 3 ore e 25 minuti fa, alle 13:57 UTC
Previsione valida dal 31 alle 15 UTC al 01 alle 00 UTC
Vento 14 kt da est/nord-est
Visibilità 10 km o più
nessuna nube inferiore a 1500 m e nessun cumulonembo
Temporaneamente
dal 31 alle 15 UTC al 01 alle 00 UTC
Vento 18 kt da est/nord-est con raffiche fino a 28 kt

TAF: EGJJ 311357Z 3115/0100 07014KT CAVOK TEMPO 3115/0100 07018G28KT

Osservazioni e previsioni meteorologiche di più di 4000 aeroporti (messaggi METAR e TAF).

Le stazioni disponibili sono rappresentate dai dischi gialli e rossi sulla carta.

Puntare il mouse per vedere il nome della stazione.

Clicca sopra per visualizzare le osservazioni e previsioni meteorologiche.

Per cambiare la mappa : fare clic sui pulsanti verdi con una croce nera per ingrandire, il pulsante verde con un trattino per diminuire, o sulla freccia verde per le mappe adiacenti.


METAR-TAF: